createdAt,value
2019-04-05T00:00:04.412Z,12.30
2019-04-05T00:02:34.989Z,12.53
2019-04-05T00:05:05.054Z,11.33
2019-04-05T00:07:34.057Z,11.80
2019-04-05T00:10:03.539Z,12.47
2019-04-05T00:12:33.512Z,12.97
2019-04-05T00:15:14.694Z,14.10
2019-04-05T00:17:33.348Z,14.03
2019-04-05T00:20:02.393Z,14.20
2019-04-05T00:22:31.318Z,15.13
2019-04-05T00:25:00.217Z,13.77
2019-04-05T00:27:29.187Z,14.00
2019-04-05T00:29:58.194Z,14.07
2019-04-05T00:32:27.169Z,14.40
2019-04-05T00:34:56.076Z,14.30
2019-04-05T00:37:26.075Z,14.23
2019-04-05T00:39:54.976Z,14.47
2019-04-05T00:42:23.894Z,15.43
2019-04-05T00:44:52.897Z,14.70
2019-04-05T00:47:21.795Z,15.23
2019-04-05T00:49:50.687Z,15.70
2019-04-05T00:52:19.630Z,17.27
2019-04-05T00:54:48.533Z,16.83
2019-04-05T00:57:17.434Z,16.50
2019-04-05T00:59:46.532Z,18.17
2019-04-05T01:02:16.394Z,16.47
2019-04-05T01:04:46.268Z,18.90
2019-04-05T01:07:15.268Z,19.40
2019-04-05T01:09:44.173Z,18.70
2019-04-05T01:12:13.456Z,19.20
2019-04-05T01:14:43.606Z,19.47
2019-04-05T01:17:24.205Z,20.17
2019-04-05T01:19:44.704Z,19.47
2019-04-05T01:22:14.173Z,19.00
2019-04-05T01:24:43.149Z,19.97
2019-04-05T01:27:12.840Z,19.67
2019-04-05T01:29:42.109Z,18.87
2019-04-05T01:32:11.075Z,17.20
2019-04-05T01:34:39.999Z,18.70
2019-04-05T01:37:10.051Z,18.67
2019-04-05T01:39:38.950Z,18.90
2019-04-05T01:42:07.905Z,19.37
2019-04-05T01:44:37.680Z,20.40
2019-04-05T01:47:06.572Z,20.50
2019-04-05T01:49:35.544Z,20.27
2019-04-05T01:52:04.431Z,20.60
2019-04-05T01:54:52.677Z,20.57
2019-04-05T01:57:21.597Z,19.70
2019-04-05T01:59:50.592Z,20.73
2019-04-05T02:02:19.658Z,22.10
2019-04-05T02:04:48.629Z,20.60
2019-04-05T02:07:17.620Z,22.40
2019-04-05T02:09:46.582Z,22.20
2019-04-05T02:12:15.649Z,20.17
2019-04-05T02:14:44.633Z,21.23
2019-04-05T02:17:13.607Z,21.50
2019-04-05T02:19:42.577Z,21.57
2019-04-05T02:22:11.576Z,20.93
2019-04-05T02:24:40.474Z,21.93
2019-04-05T02:27:09.372Z,22.67
2019-04-05T02:29:38.304Z,22.73
2019-04-05T02:32:07.271Z,22.70
2019-04-05T02:34:36.244Z,23.63
2019-04-05T02:37:05.350Z,24.33
2019-04-05T02:39:34.259Z,24.40
2019-04-05T02:42:03.352Z,23.67
2019-04-05T02:44:32.655Z,24.63
2019-04-05T02:47:01.812Z,24.57
2019-04-05T02:49:31.380Z,24.40
2019-04-05T02:52:00.986Z,22.30
2019-04-05T02:54:31.020Z,23.73
2019-04-05T02:57:01.065Z,25.63
2019-04-05T02:59:31.849Z,25.27
2019-04-05T03:02:01.136Z,25.23
2019-04-05T03:04:30.099Z,25.90
2019-04-05T03:06:59.068Z,25.77
2019-04-05T03:09:28.179Z,26.83
2019-04-05T03:11:57.545Z,23.53
2019-04-05T03:14:26.816Z,24.20
2019-04-05T03:16:55.815Z,23.97
2019-04-05T03:19:26.253Z,26.03
2019-04-05T03:21:56.709Z,26.10
2019-04-05T03:24:27.136Z,25.27
2019-04-05T03:26:57.614Z,25.77
2019-04-05T03:29:26.894Z,24.43
2019-04-05T03:31:55.864Z,22.17
2019-04-05T03:34:24.935Z,26.23
2019-04-05T03:36:55.433Z,24.83
2019-04-05T03:39:24.859Z,24.77
2019-04-05T03:41:54.686Z,24.67
2019-04-05T03:44:23.638Z,24.07
2019-04-05T03:46:56.831Z,24.90
2019-04-05T03:49:24.636Z,24.17
2019-04-05T03:51:53.593Z,26.03
2019-04-05T03:54:22.856Z,24.73
2019-04-05T03:56:51.788Z,25.50
2019-04-05T03:59:20.862Z,25.63
2019-04-05T04:01:49.934Z,23.83
2019-04-05T04:04:19.137Z,23.87
2019-04-05T04:06:48.203Z,23.70
2019-04-05T04:09:17.267Z,23.47
2019-04-05T04:11:46.459Z,23.57
2019-04-05T04:14:15.458Z,24.13
2019-04-05T04:16:44.429Z,23.90
2019-04-05T04:19:13.511Z,22.97
2019-04-05T04:21:47.129Z,23.30
2019-04-05T04:24:16.287Z,22.20
2019-04-05T04:26:45.179Z,24.17
2019-04-05T04:29:14.278Z,23.93
2019-04-05T04:31:43.550Z,22.87
2019-04-05T04:34:12.522Z,22.63
2019-04-05T04:36:41.585Z,24.60
2019-04-05T04:39:10.590Z,24.00
2019-04-05T04:41:39.653Z,22.27
2019-04-05T04:44:08.579Z,21.87
2019-04-05T04:46:37.537Z,23.80
2019-04-05T04:49:06.450Z,23.17
2019-04-05T04:51:35.821Z,22.27
2019-04-05T04:54:04.901Z,21.70
2019-04-05T04:56:33.868Z,22.23
2019-04-05T04:59:02.782Z,21.83
2019-04-05T05:01:31.760Z,21.70
2019-04-05T05:04:00.701Z,21.67
2019-04-05T05:06:29.782Z,21.03
2019-04-05T05:08:58.800Z,23.13
2019-04-05T05:11:27.992Z,22.80
2019-04-05T05:13:57.213Z,22.20
2019-04-05T05:16:26.278Z,20.60
2019-04-05T05:18:55.206Z,19.33
2019-04-05T05:21:24.377Z,19.40
2019-04-05T05:23:53.448Z,19.73
2019-04-05T05:26:22.463Z,21.07
2019-04-05T05:28:51.445Z,20.23
2019-04-05T05:31:20.417Z,21.77
2019-04-05T05:33:49.386Z,20.87
2019-04-05T05:36:18.755Z,21.93
2019-04-05T05:38:47.836Z,23.67
2019-04-05T05:41:16.797Z,22.87
2019-04-05T05:43:45.746Z,24.03
2019-04-05T05:46:14.689Z,23.80
2019-04-05T05:48:44.157Z,22.40
2019-04-05T05:51:13.061Z,23.30
2019-04-05T05:53:42.049Z,24.13
2019-04-05T05:56:10.948Z,24.33
2019-04-05T05:58:39.912Z,35.13
2019-04-05T06:01:08.828Z,34.07
2019-04-05T06:03:37.738Z,35.33
2019-04-05T06:06:06.707Z,35.33
2019-04-05T06:08:35.643Z,35.63
2019-04-05T06:11:04.611Z,37.00
2019-04-05T06:13:33.575Z,36.57
2019-04-05T06:16:02.581Z,35.57
2019-04-05T06:18:31.476Z,35.17
2019-04-05T06:21:03.335Z,36.13
2019-04-05T06:23:33.870Z,32.53
2019-04-05T06:26:01.970Z,30.07
2019-04-05T06:28:30.874Z,28.13
2019-04-05T06:30:59.917Z,27.60
2019-04-05T06:33:31.700Z,28.87
2019-04-05T06:35:59.416Z,27.00
2019-04-05T06:38:28.366Z,28.17
2019-04-05T06:40:57.338Z,26.67
2019-04-05T06:43:26.238Z,27.37
2019-04-05T06:45:55.200Z,27.47
2019-04-05T06:48:24.265Z,26.70
2019-04-05T06:50:53.162Z,26.70
2019-04-05T06:53:22.159Z,25.30
2019-04-05T06:55:51.064Z,25.13
2019-04-05T06:58:20.254Z,23.63
2019-04-05T07:00:56.991Z,25.23
2019-04-05T07:03:20.189Z,24.73
2019-04-05T07:05:49.153Z,23.80
2019-04-05T07:08:18.529Z,23.27
2019-04-05T07:10:47.616Z,24.10
2019-04-05T07:13:16.509Z,23.73
2019-04-05T07:15:45.464Z,24.87
2019-04-05T07:18:14.441Z,23.83
2019-04-05T07:20:43.338Z,23.87
2019-04-05T07:23:13.342Z,25.43
2019-04-05T07:25:43.209Z,22.27
2019-04-05T07:28:12.197Z,21.33
2019-04-05T07:30:41.124Z,21.27
2019-04-05T07:33:11.661Z,21.63
2019-04-05T07:35:40.555Z,21.10
2019-04-05T07:38:09.874Z,20.83
2019-04-05T07:40:38.940Z,20.63
2019-04-05T07:43:07.875Z,20.73
2019-04-05T07:45:36.777Z,18.33
2019-04-05T07:48:05.797Z,18.57
2019-04-05T07:50:34.907Z,19.13
2019-04-05T07:53:03.877Z,20.73
2019-04-05T07:55:32.898Z,19.60
2019-04-05T07:58:01.823Z,18.60
2019-04-05T08:00:44.321Z,19.43
2019-04-05T08:03:13.394Z,18.20
2019-04-05T08:05:42.378Z,16.83
2019-04-05T08:08:12.810Z,18.80
2019-04-05T08:10:42.733Z,17.80
2019-04-05T08:13:12.705Z,17.20
2019-04-05T08:15:41.966Z,17.50
2019-04-05T08:18:10.974Z,16.70
2019-04-05T08:20:39.879Z,15.13
2019-04-05T08:23:08.851Z,16.80
2019-04-05T08:25:37.848Z,14.83
2019-04-05T08:28:06.890Z,15.10
2019-04-05T08:30:35.963Z,13.13
2019-04-05T08:33:04.890Z,12.37
2019-04-05T08:35:33.790Z,12.20
2019-04-05T08:38:02.686Z,11.63
2019-04-05T08:40:31.698Z,12.13
2019-04-05T08:43:01.739Z,11.17
2019-04-05T08:45:30.631Z,11.47
2019-04-05T08:47:59.543Z,9.97
2019-04-05T08:50:28.446Z,9.43
2019-04-05T08:52:57.364Z,10.00
2019-04-05T08:55:27.341Z,8.80
2019-04-05T08:57:56.230Z,9.07
2019-04-05T09:00:26.511Z,8.87
2019-04-05T09:02:55.579Z,9.80
2019-04-05T09:05:24.680Z,9.67
2019-04-05T09:07:53.624Z,9.07
2019-04-05T09:10:22.679Z,10.13
2019-04-05T09:12:51.566Z,9.67
2019-04-05T09:15:20.511Z,10.07
2019-04-05T09:17:49.418Z,9.30
2019-04-05T09:20:18.311Z,9.60
2019-04-05T09:22:47.308Z,9.40
2019-04-05T09:25:16.201Z,10.53
2019-04-05T09:27:45.101Z,13.40
2019-04-05T09:30:14.105Z,10.37
2019-04-05T09:32:43.068Z,11.33
2019-04-05T09:35:11.965Z,9.13
2019-04-05T09:37:40.973Z,9.23
2019-04-05T09:40:09.873Z,7.77
2019-04-05T09:42:38.828Z,7.83
2019-04-05T09:45:07.891Z,7.07
2019-04-05T09:47:36.810Z,8.00
2019-04-05T09:50:06.173Z,7.53
2019-04-05T09:52:35.169Z,7.50
2019-04-05T09:55:05.429Z,7.20
2019-04-05T09:57:34.322Z,7.27
2019-04-05T10:00:05.164Z,7.80
2019-04-05T10:02:35.032Z,8.13
2019-04-05T10:05:04.910Z,7.20
2019-04-05T10:07:33.872Z,6.87
2019-04-05T10:10:02.869Z,6.90
2019-04-05T10:12:32.006Z,6.77
2019-04-05T10:15:00.893Z,7.33
2019-04-05T10:17:29.925Z,6.67
2019-04-05T10:19:58.915Z,6.93
2019-04-05T10:22:27.812Z,6.47
2019-04-05T10:24:56.746Z,6.53
2019-04-05T10:27:25.654Z,6.77
2019-04-05T10:29:54.629Z,6.27
2019-04-05T10:32:23.567Z,7.50
2019-04-05T10:34:52.540Z,6.47
2019-04-05T10:37:21.451Z,6.33
2019-04-05T10:39:50.433Z,6.40
2019-04-05T10:42:26.963Z,6.60
2019-04-05T10:44:55.897Z,6.23
2019-04-05T10:47:24.908Z,6.37
2019-04-05T10:50:02.927Z,6.13
2019-04-05T10:52:24.492Z,5.90
2019-04-05T10:54:53.444Z,5.90
2019-04-05T10:57:22.416Z,6.37
2019-04-05T10:59:51.473Z,6.40
2019-04-05T11:02:20.369Z,5.67
2019-04-05T11:04:49.337Z,6.00
2019-04-05T11:07:18.248Z,5.90
2019-04-05T11:09:47.135Z,4.97
2019-04-05T11:12:16.033Z,5.10
2019-04-05T11:14:45.101Z,4.57
2019-04-05T11:17:13.984Z,5.43
2019-04-05T11:19:42.949Z,4.37
2019-04-05T11:22:11.866Z,4.03
2019-04-05T11:24:40.821Z,4.50
2019-04-05T11:27:09.800Z,4.70
2019-04-05T11:29:38.729Z,4.80
2019-04-05T11:32:07.862Z,5.07
2019-04-05T11:34:37.732Z,4.90
2019-04-05T11:37:06.777Z,5.37
2019-04-05T11:39:35.733Z,5.07
2019-04-05T11:42:04.695Z,4.77
2019-04-05T11:44:33.958Z,5.00
2019-04-05T11:47:03.688Z,4.73
2019-04-05T11:49:34.455Z,4.87
2019-04-05T11:52:03.422Z,5.03
2019-04-05T11:54:32.371Z,4.83
2019-04-05T11:57:01.260Z,5.40
2019-04-05T11:59:30.188Z,4.70
2019-04-05T12:02:00.720Z,4.87
2019-04-05T12:04:29.605Z,4.60
2019-04-05T12:06:58.528Z,4.20
2019-04-05T12:09:27.405Z,4.97
2019-04-05T12:11:56.293Z,4.23
2019-04-05T12:14:30.521Z,4.13
2019-04-05T12:16:55.880Z,4.40
2019-04-05T12:19:24.759Z,4.70
2019-04-05T12:21:53.687Z,4.70
2019-04-05T12:24:22.571Z,5.03
2019-04-05T12:26:51.529Z,5.07
2019-04-05T12:29:20.424Z,4.63
2019-04-05T12:31:49.357Z,3.20
2019-04-05T12:34:21.538Z,2.90
2019-04-05T12:36:50.536Z,3.40
2019-04-05T12:39:19.456Z,3.50
2019-04-05T12:41:48.341Z,3.53
2019-04-05T12:44:17.239Z,3.80
2019-04-05T12:46:46.356Z,3.77
2019-04-05T12:49:15.408Z,3.90
2019-04-05T12:51:45.514Z,3.87
2019-04-05T12:54:15.089Z,3.50
2019-04-05T12:56:43.986Z,3.20
2019-04-05T12:59:12.873Z,2.60
2019-04-05T13:01:43.575Z,2.10
2019-04-05T13:04:13.466Z,2.73
2019-04-05T13:06:42.499Z,3.30
2019-04-05T13:09:13.211Z,2.87
2019-04-05T13:11:42.167Z,2.40
2019-04-05T13:14:11.067Z,2.77
2019-04-05T13:16:39.978Z,3.40
2019-04-05T13:19:08.873Z,3.87
2019-04-05T13:21:37.769Z,3.37
2019-04-05T13:24:09.384Z,3.57
2019-04-05T13:26:37.356Z,3.30
2019-04-05T13:29:06.260Z,3.17
2019-04-05T13:31:35.223Z,3.40
2019-04-05T13:34:05.935Z,3.87
2019-04-05T13:36:34.894Z,2.83
2019-04-05T13:39:05.457Z,3.73
2019-04-05T13:41:34.517Z,3.20
2019-04-05T13:44:03.554Z,3.50
2019-04-05T13:46:32.500Z,3.30
2019-04-05T13:49:01.417Z,3.50
2019-04-05T13:51:31.961Z,3.30
2019-04-05T13:54:01.072Z,3.33
2019-04-05T13:56:30.053Z,3.40
2019-04-05T13:58:58.946Z,3.17
2019-04-05T14:01:27.877Z,3.63
2019-04-05T14:03:56.794Z,3.50
2019-04-05T14:06:25.744Z,3.83
2019-04-05T14:08:54.649Z,3.67
2019-04-05T14:11:25.960Z,3.13
2019-04-05T14:13:54.166Z,3.67
2019-04-05T14:16:23.053Z,3.10
2019-04-05T14:18:51.997Z,3.83
2019-04-05T14:21:22.406Z,3.60
2019-04-05T14:23:53.342Z,3.77
2019-04-05T14:26:22.189Z,3.57
2019-04-05T14:28:52.959Z,3.60
2019-04-05T14:31:21.735Z,3.67
2019-04-05T14:33:53.968Z,3.67
2019-04-05T14:36:23.075Z,3.47
2019-04-05T14:38:51.864Z,4.03
2019-04-05T14:41:20.794Z,3.67
2019-04-05T14:43:49.720Z,4.03
2019-04-05T14:46:18.600Z,5.13
2019-04-05T14:48:47.493Z,4.10
2019-04-05T14:51:16.424Z,5.50
2019-04-05T14:53:45.384Z,4.03
2019-04-05T14:56:14.285Z,3.30
2019-04-05T14:58:43.294Z,4.60
2019-04-05T15:01:12.344Z,5.87
2019-04-05T15:03:41.377Z,4.57
2019-04-05T15:06:10.339Z,4.97
2019-04-05T15:08:39.235Z,3.47
2019-04-05T15:11:11.082Z,3.60
2019-04-05T15:13:39.732Z,3.60
2019-04-05T15:16:08.641Z,3.90
2019-04-05T15:18:37.567Z,3.57
2019-04-05T15:21:06.671Z,3.83
2019-04-05T15:23:35.684Z,4.53
2019-04-05T15:26:04.685Z,4.23
2019-04-05T15:28:33.581Z,4.60
2019-04-05T15:31:02.470Z,4.70
2019-04-05T15:33:31.515Z,4.43
2019-04-05T15:36:02.932Z,4.77
2019-04-05T15:38:31.718Z,4.07
2019-04-05T15:41:01.453Z,4.50
2019-04-05T15:43:30.514Z,4.50
2019-04-05T15:45:59.399Z,4.67
2019-04-05T15:48:28.330Z,4.80
2019-04-05T15:50:59.279Z,4.83
2019-04-05T15:53:31.563Z,4.57
2019-04-05T15:55:58.539Z,4.63
2019-04-05T15:58:27.438Z,4.77
2019-04-05T16:00:56.408Z,4.50
2019-04-05T16:03:25.339Z,4.87
2019-04-05T16:05:54.298Z,4.30
2019-04-05T16:08:23.432Z,4.40
2019-04-05T16:10:52.628Z,4.87
2019-04-05T16:13:21.589Z,3.67
2019-04-05T16:15:50.480Z,4.20
2019-04-05T16:18:19.484Z,3.93
2019-04-05T16:20:48.372Z,4.10
2019-04-05T16:23:17.402Z,3.93
2019-04-05T16:25:46.413Z,4.03
2019-04-05T16:28:15.307Z,3.50
2019-04-05T16:30:44.262Z,3.97
2019-04-05T16:33:14.275Z,3.43
2019-04-05T16:35:43.766Z,3.53
2019-04-05T16:38:12.713Z,3.73
2019-04-05T16:40:43.003Z,3.90
2019-04-05T16:43:11.908Z,2.90
2019-04-05T16:45:40.972Z,3.13
2019-04-05T16:48:23.168Z,3.00
2019-04-05T16:50:52.150Z,2.73
2019-04-05T16:53:21.037Z,2.97
2019-04-05T16:55:49.941Z,3.97
2019-04-05T16:58:18.826Z,3.40
2019-04-05T17:00:47.820Z,2.90
2019-04-05T17:03:16.712Z,3.17
2019-04-05T17:05:46.537Z,2.73
2019-04-05T17:08:15.555Z,3.07
2019-04-05T17:10:45.511Z,2.90
2019-04-05T17:13:14.470Z,3.00
2019-04-05T17:15:43.464Z,3.80
2019-04-05T17:18:12.426Z,3.00
2019-04-05T17:20:41.312Z,2.73
2019-04-05T17:23:10.216Z,2.53
2019-04-05T17:25:39.192Z,2.40
2019-04-05T17:28:08.316Z,2.33
2019-04-05T17:30:37.282Z,2.23
2019-04-05T17:33:06.332Z,2.40
2019-04-05T17:35:35.283Z,2.50
2019-04-05T17:38:04.313Z,2.30
2019-04-05T17:40:33.270Z,2.40
2019-04-05T17:43:02.226Z,2.20
2019-04-05T17:45:31.197Z,2.50
2019-04-05T17:48:00.153Z,2.27
2019-04-05T17:50:31.406Z,2.40
2019-04-05T17:53:11.278Z,2.20
2019-04-05T17:55:31.362Z,2.20
2019-04-05T17:58:00.444Z,2.37
2019-04-05T18:00:29.956Z,2.70
2019-04-05T18:02:58.935Z,2.37
2019-04-05T18:05:27.854Z,2.37
2019-04-05T18:07:56.757Z,1.90
2019-04-05T18:10:25.715Z,2.10
2019-04-05T18:12:54.704Z,2.40
2019-04-05T18:15:23.696Z,2.70
2019-04-05T18:17:52.637Z,2.63
2019-04-05T18:20:21.580Z,2.20
2019-04-05T18:22:50.552Z,2.90
2019-04-05T18:25:19.522Z,2.57
2019-04-05T18:27:48.436Z,2.20
2019-04-05T18:30:17.389Z,2.50
2019-04-05T18:32:46.281Z,3.07
2019-04-05T18:35:15.284Z,2.13
2019-04-05T18:37:44.239Z,2.70
2019-04-05T18:40:13.320Z,3.23
2019-04-05T18:42:42.345Z,2.60
2019-04-05T18:45:11.304Z,2.30
2019-04-05T18:47:40.203Z,2.30
2019-04-05T18:50:09.291Z,2.17
2019-04-05T18:52:38.247Z,2.50
2019-04-05T18:55:07.325Z,2.30
2019-04-05T18:57:36.236Z,2.30
2019-04-05T19:00:06.309Z,3.07
2019-04-05T19:02:35.438Z,2.57
2019-04-05T19:05:07.304Z,3.00
2019-04-05T19:07:36.196Z,2.70
2019-04-05T19:10:06.470Z,2.90
2019-04-05T19:12:35.606Z,2.70
2019-04-05T19:15:08.136Z,2.23
2019-04-05T19:17:37.115Z,2.60
2019-04-05T19:20:06.268Z,3.00
2019-04-05T19:22:35.183Z,2.80
2019-04-05T19:25:07.106Z,3.10
2019-04-05T19:27:36.168Z,2.93
2019-04-05T19:50:11.555Z,3.00
2019-04-05T19:52:40.446Z,3.17
2019-04-05T19:55:09.412Z,3.30
2019-04-05T19:57:38.426Z,3.60
2019-04-05T20:00:07.485Z,3.60
2019-04-05T20:02:36.516Z,3.30
2019-04-05T20:05:07.020Z,3.70
2019-04-05T20:07:36.084Z,3.77
2019-04-05T20:10:05.415Z,3.70
2019-04-05T20:12:34.408Z,3.57
2019-04-05T20:15:04.234Z,3.67
2019-04-05T20:17:33.661Z,3.60
2019-04-05T20:20:02.889Z,3.00
2019-04-05T20:22:31.841Z,3.77
2019-04-05T20:25:00.824Z,4.77
2019-04-05T20:27:29.797Z,4.00
2019-04-05T20:29:58.752Z,3.50
2019-04-05T20:32:27.753Z,3.70
2019-04-05T20:34:57.710Z,3.90
2019-04-05T20:37:26.619Z,4.23
2019-04-05T20:39:55.615Z,4.20
2019-04-05T20:42:24.583Z,3.83
2019-04-05T20:44:53.465Z,4.00
2019-04-05T20:47:22.405Z,4.00
2019-04-05T20:49:51.297Z,4.00
2019-04-05T20:52:20.196Z,3.40
2019-04-05T20:54:49.114Z,3.40
2019-04-05T20:57:18.001Z,3.80
2019-04-05T20:59:47.030Z,4.17
2019-04-05T21:02:15.964Z,3.50
2019-04-05T21:04:44.924Z,3.63
2019-04-05T21:07:13.821Z,3.90
2019-04-05T21:09:42.785Z,3.90
2019-04-05T21:12:11.871Z,3.90
2019-04-05T21:14:40.760Z,3.63
2019-04-05T21:17:09.660Z,4.00
2019-04-05T21:19:38.560Z,4.37
2019-04-05T21:22:07.458Z,4.20
2019-04-05T21:24:36.601Z,4.60
2019-04-05T21:27:05.760Z,4.03
2019-04-05T21:29:34.928Z,3.70
2019-04-05T21:32:04.411Z,4.13
2019-04-05T21:34:33.465Z,4.03
2019-04-05T21:37:02.384Z,4.07
2019-04-05T21:39:31.432Z,4.07
2019-04-05T21:42:00.485Z,4.33
2019-04-05T21:44:30.678Z,4.40
2019-04-05T21:46:59.808Z,5.00
2019-04-05T21:49:28.874Z,4.43
2019-04-05T21:51:57.937Z,4.20
2019-04-05T21:54:26.969Z,4.20
2019-04-05T21:56:56.037Z,4.50
2019-04-05T21:59:25.166Z,5.30
2019-04-05T22:01:54.450Z,4.00
2019-04-05T22:04:23.590Z,4.83
2019-04-05T22:06:52.609Z,4.63
2019-04-05T22:09:21.685Z,4.83
2019-04-05T22:11:50.680Z,4.63
2019-04-05T22:14:19.635Z,4.70
2019-04-05T22:16:48.613Z,4.93
2019-04-05T22:19:17.541Z,4.60
2019-04-05T22:21:46.568Z,5.00
2019-04-05T22:24:15.658Z,4.73
2019-04-05T22:26:44.745Z,5.00
2019-04-05T22:29:13.737Z,4.80
2019-04-05T22:31:42.645Z,4.60
2019-04-05T22:34:11.523Z,5.23
2019-04-05T22:36:40.458Z,4.60
2019-04-05T22:39:09.348Z,5.37
2019-04-05T22:41:38.310Z,4.93
2019-04-05T22:44:07.298Z,5.43
2019-04-05T22:46:36.258Z,5.20
2019-04-05T22:49:06.123Z,5.17
2019-04-05T22:51:35.021Z,4.93
2019-04-05T22:54:03.984Z,4.67
2019-04-05T22:56:32.887Z,5.17
2019-04-05T22:59:01.786Z,5.63
2019-04-05T23:01:30.672Z,4.97
2019-04-05T23:03:59.722Z,5.27
2019-04-05T23:06:28.649Z,5.40
2019-04-05T23:08:57.545Z,5.33
2019-04-05T23:11:26.432Z,5.33
2019-04-05T23:13:56.424Z,5.17
2019-04-05T23:16:25.310Z,5.33
2019-04-05T23:18:54.201Z,4.97
2019-04-05T23:21:23.100Z,5.07
2019-04-05T23:23:52.027Z,5.93
2019-04-05T23:26:20.937Z,5.40
2019-04-05T23:28:49.830Z,5.90
2019-04-05T23:31:18.758Z,5.70
2019-04-05T23:33:47.661Z,5.90
2019-04-05T23:36:16.553Z,5.80
2019-04-05T23:38:45.465Z,5.50
2019-04-05T23:41:14.358Z,6.13
2019-04-05T23:43:43.267Z,6.70
2019-04-05T23:46:12.171Z,6.13
2019-04-05T23:48:41.063Z,5.80
2019-04-05T23:51:10.172Z,6.00
2019-04-05T23:53:39.057Z,6.50
2019-04-05T23:56:08.026Z,6.57
2019-04-05T23:58:36.954Z,7.17
